sensor_id;sensor_type;location;lat;lon;timestamp;P1;durP1;ratioP1;P2;durP2;ratioP2
1625;SDS011;806;48.770;9.156;2023-06-22T00:01:17;2.97;;;1.60;;
1625;SDS011;806;48.770;9.156;2023-06-22T00:03:44;2.20;;;2.00;;
1625;SDS011;806;48.770;9.156;2023-06-22T00:06:11;2.65;;;1.50;;
1625;SDS011;806;48.770;9.156;2023-06-22T00:08:38;3.10;;;1.50;;
1625;SDS011;806;48.770;9.156;2023-06-22T00:11:06;3.22;;;1.92;;
1625;SDS011;806;48.770;9.156;2023-06-22T00:13:33;2.42;;;1.40;;
1625;SDS011;806;48.770;9.156;2023-06-22T00:16:00;2.30;;;1.60;;
1625;SDS011;806;48.770;9.156;2023-06-22T00:18:27;1.90;;;1.50;;
1625;SDS011;806;48.770;9.156;2023-06-22T00:20:55;2.83;;;1.60;;
1625;SDS011;806;48.770;9.156;2023-06-22T00:23:25;2.63;;;1.55;;
1625;SDS011;806;48.770;9.156;2023-06-22T00:25:52;2.70;;;1.50;;
1625;SDS011;806;48.770;9.156;2023-06-22T00:28:21;2.30;;;1.40;;
1625;SDS011;806;48.770;9.156;2023-06-22T00:30:48;2.60;;;1.60;;
1625;SDS011;806;48.770;9.156;2023-06-22T00:33:15;2.00;;;1.40;;
1625;SDS011;806;48.770;9.156;2023-06-22T00:35:42;2.10;;;1.40;;
1625;SDS011;806;48.770;9.156;2023-06-22T00:38:09;3.30;;;1.60;;
1625;SDS011;806;48.770;9.156;2023-06-22T00:40:36;3.05;;;1.45;;
1625;SDS011;806;48.770;9.156;2023-06-22T00:43:03;2.20;;;1.67;;
1625;SDS011;806;48.770;9.156;2023-06-22T00:45:32;3.60;;;1.90;;
1625;SDS011;806;48.770;9.156;2023-06-22T00:47:59;2.80;;;1.50;;
1625;SDS011;806;48.770;9.156;2023-06-22T00:50:27;3.08;;;1.40;;
1625;SDS011;806;48.770;9.156;2023-06-22T00:52:58;2.35;;;1.70;;
1625;SDS011;806;48.770;9.156;2023-06-22T00:55:27;2.30;;;1.80;;
1625;SDS011;806;48.770;9.156;2023-06-22T00:57:56;3.60;;;1.60;;
1625;SDS011;806;48.770;9.156;2023-06-22T01:00:23;2.97;;;1.60;;
1625;SDS011;806;48.770;9.156;2023-06-22T01:02:52;1.88;;;1.30;;
1625;SDS011;806;48.770;9.156;2023-06-22T01:05:20;2.40;;;1.65;;
1625;SDS011;806;48.770;9.156;2023-06-22T01:10:34;1.98;;;1.60;;
1625;SDS011;806;48.770;9.156;2023-06-22T01:13:07;1.70;;;1.20;;
1625;SDS011;806;48.770;9.156;2023-06-22T01:15:41;2.58;;;1.60;;
1625;SDS011;806;48.770;9.156;2023-06-22T01:18:16;2.78;;;1.85;;
1625;SDS011;806;48.770;9.156;2023-06-22T01:20:44;2.15;;;1.45;;
1625;SDS011;806;48.770;9.156;2023-06-22T01:23:17;2.60;;;1.60;;
1625;SDS011;806;48.770;9.156;2023-06-22T01:25:57;1.63;;;1.40;;
1625;SDS011;806;48.770;9.156;2023-06-22T01:28:37;2.03;;;1.50;;
1625;SDS011;806;48.770;9.156;2023-06-22T01:31:12;2.40;;;1.30;;
1625;SDS011;806;48.770;9.156;2023-06-22T01:33:43;2.70;;;1.40;;
1625;SDS011;806;48.770;9.156;2023-06-22T01:36:11;4.28;;;1.60;;
1625;SDS011;806;48.770;9.156;2023-06-22T01:38:40;3.08;;;1.60;;
1625;SDS011;806;48.770;9.156;2023-06-22T01:41:09;2.53;;;1.73;;
1625;SDS011;806;48.770;9.156;2023-06-22T01:43:39;2.38;;;1.70;;
1625;SDS011;806;48.770;9.156;2023-06-22T01:46:06;3.22;;;1.50;;
1625;SDS011;806;48.770;9.156;2023-06-22T01:48:34;3.30;;;2.00;;
1625;SDS011;806;48.770;9.156;2023-06-22T01:51:01;2.13;;;1.73;;
1625;SDS011;806;48.770;9.156;2023-06-22T01:53:29;2.50;;;1.60;;
1625;SDS011;806;48.770;9.156;2023-06-22T01:55:56;2.53;;;1.70;;
1625;SDS011;806;48.770;9.156;2023-06-22T01:58:24;2.10;;;1.60;;
1625;SDS011;806;48.770;9.156;2023-06-22T02:00:55;2.42;;;1.60;;
1625;SDS011;806;48.770;9.156;2023-06-22T02:03:30;2.33;;;1.58;;
1625;SDS011;806;48.770;9.156;2023-06-22T02:06:01;2.60;;;1.50;;
1625;SDS011;806;48.770;9.156;2023-06-22T02:08:32;3.30;;;2.00;;
1625;SDS011;806;48.770;9.156;2023-06-22T02:11:03;2.40;;;1.50;;
1625;SDS011;806;48.770;9.156;2023-06-22T02:13:32;4.80;;;1.70;;
1625;SDS011;806;48.770;9.156;2023-06-22T02:16:01;3.90;;;2.65;;
1625;SDS011;806;48.770;9.156;2023-06-22T02:18:29;2.50;;;1.60;;
1625;SDS011;806;48.770;9.156;2023-06-22T02:20:56;3.40;;;2.20;;
1625;SDS011;806;48.770;9.156;2023-06-22T02:23:24;2.25;;;1.90;;
1625;SDS011;806;48.770;9.156;2023-06-22T02:25:51;1.90;;;1.50;;
1625;SDS011;806;48.770;9.156;2023-06-22T02:28:18;2.80;;;1.65;;
1625;SDS011;806;48.770;9.156;2023-06-22T02:30:45;3.53;;;2.03;;
1625;SDS011;806;48.770;9.156;2023-06-22T02:33:13;2.90;;;1.50;;
1625;SDS011;806;48.770;9.156;2023-06-22T02:35:40;1.90;;;1.55;;
1625;SDS011;806;48.770;9.156;2023-06-22T02:38:10;2.30;;;1.70;;
1625;SDS011;806;48.770;9.156;2023-06-22T02:40:37;2.20;;;1.50;;
1625;SDS011;806;48.770;9.156;2023-06-22T02:43:04;2.42;;;1.52;;
1625;SDS011;806;48.770;9.156;2023-06-22T02:45:31;3.00;;;2.20;;
1625;SDS011;806;48.770;9.156;2023-06-22T02:47:58;5.82;;;2.50;;
1625;SDS011;806;48.770;9.156;2023-06-22T02:50:27;3.53;;;2.45;;
1625;SDS011;806;48.770;9.156;2023-06-22T02:52:54;3.13;;;1.83;;
1625;SDS011;806;48.770;9.156;2023-06-22T02:55:21;3.63;;;1.80;;
1625;SDS011;806;48.770;9.156;2023-06-22T02:57:48;3.75;;;1.95;;
1625;SDS011;806;48.770;9.156;2023-06-22T03:00:18;2.65;;;2.30;;
1625;SDS011;806;48.770;9.156;2023-06-22T03:02:47;3.10;;;2.60;;
1625;SDS011;806;48.770;9.156;2023-06-22T03:05:15;2.90;;;2.20;;
1625;SDS011;806;48.770;9.156;2023-06-22T03:07:44;3.38;;;2.65;;
1625;SDS011;806;48.770;9.156;2023-06-22T03:10:12;4.33;;;2.57;;
1625;SDS011;806;48.770;9.156;2023-06-22T03:12:40;3.28;;;2.10;;
1625;SDS011;806;48.770;9.156;2023-06-22T03:15:08;2.45;;;1.83;;
1625;SDS011;806;48.770;9.156;2023-06-22T03:17:37;3.00;;;1.95;;
1625;SDS011;806;48.770;9.156;2023-06-22T03:20:07;3.50;;;2.50;;
1625;SDS011;806;48.770;9.156;2023-06-22T03:22:36;3.38;;;2.47;;
1625;SDS011;806;48.770;9.156;2023-06-22T03:25:04;2.90;;;2.10;;
1625;SDS011;806;48.770;9.156;2023-06-22T03:27:36;3.30;;;1.87;;
1625;SDS011;806;48.770;9.156;2023-06-22T03:30:03;4.80;;;2.03;;
1625;SDS011;806;48.770;9.156;2023-06-22T03:32:30;3.20;;;2.20;;
1625;SDS011;806;48.770;9.156;2023-06-22T03:34:57;2.30;;;1.55;;
1625;SDS011;806;48.770;9.156;2023-06-22T03:37:25;3.70;;;2.10;;
1625;SDS011;806;48.770;9.156;2023-06-22T03:39:52;2.65;;;1.77;;
1625;SDS011;806;48.770;9.156;2023-06-22T03:42:20;1.93;;;1.40;;
1625;SDS011;806;48.770;9.156;2023-06-22T03:44:47;3.10;;;2.00;;
1625;SDS011;806;48.770;9.156;2023-06-22T03:47:14;3.17;;;2.00;;
1625;SDS011;806;48.770;9.156;2023-06-22T03:49:41;3.40;;;2.30;;
1625;SDS011;806;48.770;9.156;2023-06-22T03:52:08;2.92;;;1.80;;
1625;SDS011;806;48.770;9.156;2023-06-22T03:54:36;4.07;;;2.00;;
1625;SDS011;806;48.770;9.156;2023-06-22T03:57:03;2.45;;;1.83;;
1625;SDS011;806;48.770;9.156;2023-06-22T03:59:32;3.03;;;1.90;;
1625;SDS011;806;48.770;9.156;2023-06-22T04:01:59;5.30;;;2.20;;
1625;SDS011;806;48.770;9.156;2023-06-22T04:04:26;3.25;;;1.80;;
1625;SDS011;806;48.770;9.156;2023-06-22T04:06:53;2.10;;;1.40;;
1625;SDS011;806;48.770;9.156;2023-06-22T04:09:20;3.35;;;1.90;;
1625;SDS011;806;48.770;9.156;2023-06-22T04:11:47;2.95;;;1.50;;
1625;SDS011;806;48.770;9.156;2023-06-22T04:14:14;2.45;;;1.50;;
1625;SDS011;806;48.770;9.156;2023-06-22T04:16:43;3.28;;;2.08;;
1625;SDS011;806;48.770;9.156;2023-06-22T04:19:10;3.85;;;2.20;;
1625;SDS011;806;48.770;9.156;2023-06-22T04:21:42;3.50;;;2.17;;
1625;SDS011;806;48.770;9.156;2023-06-22T04:24:10;3.53;;;1.80;;
1625;SDS011;806;48.770;9.156;2023-06-22T04:26:37;4.70;;;2.13;;
1625;SDS011;806;48.770;9.156;2023-06-22T04:29:06;4.00;;;2.40;;
1625;SDS011;806;48.770;9.156;2023-06-22T04:31:33;3.60;;;1.90;;
1625;SDS011;806;48.770;9.156;2023-06-22T04:34:03;3.60;;;1.80;;
1625;SDS011;806;48.770;9.156;2023-06-22T04:36:33;3.67;;;1.90;;
1625;SDS011;806;48.770;9.156;2023-06-22T04:39:03;2.65;;;2.03;;
1625;SDS011;806;48.770;9.156;2023-06-22T04:41:31;2.50;;;2.20;;
1625;SDS011;806;48.770;9.156;2023-06-22T04:44:07;3.20;;;1.98;;
1625;SDS011;806;48.770;9.156;2023-06-22T04:46:34;4.57;;;1.90;;
1625;SDS011;806;48.770;9.156;2023-06-22T04:49:04;5.20;;;2.40;;
1625;SDS011;806;48.770;9.156;2023-06-22T04:51:37;2.60;;;1.80;;
1625;SDS011;806;48.770;9.156;2023-06-22T04:54:05;2.90;;;2.30;;
1625;SDS011;806;48.770;9.156;2023-06-22T04:56:32;4.95;;;2.72;;
1625;SDS011;806;48.770;9.156;2023-06-22T04:59:00;3.28;;;1.95;;
1625;SDS011;806;48.770;9.156;2023-06-22T05:01:28;3.45;;;2.00;;
1625;SDS011;806;48.770;9.156;2023-06-22T05:03:56;3.08;;;1.85;;
1625;SDS011;806;48.770;9.156;2023-06-22T05:06:27;3.90;;;1.92;;
1625;SDS011;806;48.770;9.156;2023-06-22T05:08:55;2.42;;;2.08;;
1625;SDS011;806;48.770;9.156;2023-06-22T05:11:24;3.30;;;2.50;;
1625;SDS011;806;48.770;9.156;2023-06-22T05:13:51;3.53;;;2.00;;
1625;SDS011;806;48.770;9.156;2023-06-22T05:16:18;3.88;;;2.20;;
1625;SDS011;806;48.770;9.156;2023-06-22T05:18:48;4.10;;;2.40;;
1625;SDS011;806;48.770;9.156;2023-06-22T05:21:17;2.95;;;1.83;;
1625;SDS011;806;48.770;9.156;2023-06-22T05:23:45;3.33;;;2.00;;
1625;SDS011;806;48.770;9.156;2023-06-22T05:26:12;3.80;;;1.80;;
1625;SDS011;806;48.770;9.156;2023-06-22T05:28:39;3.70;;;1.90;;
1625;SDS011;806;48.770;9.156;2023-06-22T05:31:07;4.03;;;1.70;;
1625;SDS011;806;48.770;9.156;2023-06-22T05:33:34;4.22;;;1.88;;
1625;SDS011;806;48.770;9.156;2023-06-22T05:36:01;3.80;;;2.25;;
1625;SDS011;806;48.770;9.156;2023-06-22T05:38:28;3.38;;;2.10;;
1625;SDS011;806;48.770;9.156;2023-06-22T05:40:56;2.77;;;2.30;;
1625;SDS011;806;48.770;9.156;2023-06-22T05:43:23;2.85;;;1.85;;
1625;SDS011;806;48.770;9.156;2023-06-22T05:45:50;2.60;;;1.90;;
1625;SDS011;806;48.770;9.156;2023-06-22T05:48:17;3.58;;;1.70;;
1625;SDS011;806;48.770;9.156;2023-06-22T05:50:44;3.08;;;2.03;;
1625;SDS011;806;48.770;9.156;2023-06-22T05:53:11;4.40;;;2.00;;
1625;SDS011;806;48.770;9.156;2023-06-22T05:55:38;2.67;;;1.70;;
1625;SDS011;806;48.770;9.156;2023-06-22T05:58:07;2.92;;;1.73;;
1625;SDS011;806;48.770;9.156;2023-06-22T06:00:34;2.85;;;1.45;;
1625;SDS011;806;48.770;9.156;2023-06-22T06:03:02;2.97;;;1.55;;
1625;SDS011;806;48.770;9.156;2023-06-22T06:05:29;2.22;;;1.50;;
1625;SDS011;806;48.770;9.156;2023-06-22T06:07:56;2.72;;;1.45;;
1625;SDS011;806;48.770;9.156;2023-06-22T06:10:23;2.85;;;1.50;;
1625;SDS011;806;48.770;9.156;2023-06-22T06:12:50;2.40;;;1.40;;
1625;SDS011;806;48.770;9.156;2023-06-22T06:15:18;3.33;;;1.73;;
1625;SDS011;806;48.770;9.156;2023-06-22T06:17:46;3.10;;;1.60;;
1625;SDS011;806;48.770;9.156;2023-06-22T06:20:13;2.30;;;1.83;;
1625;SDS011;806;48.770;9.156;2023-06-22T06:22:40;3.63;;;1.40;;
1625;SDS011;806;48.770;9.156;2023-06-22T06:25:09;3.10;;;1.40;;
1625;SDS011;806;48.770;9.156;2023-06-22T06:27:41;2.95;;;1.33;;
1625;SDS011;806;48.770;9.156;2023-06-22T06:30:09;2.53;;;1.45;;
1625;SDS011;806;48.770;9.156;2023-06-22T06:32:39;2.63;;;1.20;;
1625;SDS011;806;48.770;9.156;2023-06-22T06:35:06;3.03;;;1.73;;
1625;SDS011;806;48.770;9.156;2023-06-22T06:37:36;5.60;;;1.40;;
1625;SDS011;806;48.770;9.156;2023-06-22T06:40:04;1.92;;;1.30;;
1625;SDS011;806;48.770;9.156;2023-06-22T06:42:33;1.65;;;1.15;;
1625;SDS011;806;48.770;9.156;2023-06-22T06:45:02;2.20;;;1.40;;
1625;SDS011;806;48.770;9.156;2023-06-22T06:47:30;2.65;;;1.20;;
1625;SDS011;806;48.770;9.156;2023-06-22T06:49:58;3.10;;;1.40;;
1625;SDS011;806;48.770;9.156;2023-06-22T06:52:25;1.92;;;1.35;;
1625;SDS011;806;48.770;9.156;2023-06-22T06:54:52;2.30;;;1.20;;
1625;SDS011;806;48.770;9.156;2023-06-22T06:57:19;3.08;;;1.20;;
1625;SDS011;806;48.770;9.156;2023-06-22T06:59:47;2.93;;;1.33;;
1625;SDS011;806;48.770;9.156;2023-06-22T07:02:14;1.60;;;1.20;;
1625;SDS011;806;48.770;9.156;2023-06-22T07:04:42;1.83;;;1.20;;
1625;SDS011;806;48.770;9.156;2023-06-22T07:07:10;1.80;;;1.20;;
1625;SDS011;806;48.770;9.156;2023-06-22T07:09:37;2.20;;;1.20;;
1625;SDS011;806;48.770;9.156;2023-06-22T07:12:04;2.42;;;1.20;;
1625;SDS011;806;48.770;9.156;2023-06-22T07:14:32;2.72;;;1.40;;
1625;SDS011;806;48.770;9.156;2023-06-22T07:16:59;2.10;;;1.60;;
1625;SDS011;806;48.770;9.156;2023-06-22T07:19:26;3.70;;;1.60;;
1625;SDS011;806;48.770;9.156;2023-06-22T07:21:54;3.17;;;1.50;;
1625;SDS011;806;48.770;9.156;2023-06-22T07:24:22;2.42;;;1.23;;
1625;SDS011;806;48.770;9.156;2023-06-22T07:26:50;2.53;;;1.20;;
1625;SDS011;806;48.770;9.156;2023-06-22T07:29:17;2.42;;;1.30;;
1625;SDS011;806;48.770;9.156;2023-06-22T07:31:46;2.40;;;1.30;;
1625;SDS011;806;48.770;9.156;2023-06-22T07:34:14;2.42;;;1.40;;
1625;SDS011;806;48.770;9.156;2023-06-22T07:36:42;3.00;;;1.30;;
1625;SDS011;806;48.770;9.156;2023-06-22T07:39:09;2.40;;;1.10;;
1625;SDS011;806;48.770;9.156;2023-06-22T07:41:39;2.20;;;1.27;;
1625;SDS011;806;48.770;9.156;2023-06-22T07:44:06;1.90;;;1.20;;
1625;SDS011;806;48.770;9.156;2023-06-22T07:46:33;2.20;;;1.10;;
1625;SDS011;806;48.770;9.156;2023-06-22T07:49:01;1.90;;;1.30;;
1625;SDS011;806;48.770;9.156;2023-06-22T07:51:28;2.45;;;1.20;;
1625;SDS011;806;48.770;9.156;2023-06-22T07:53:55;2.33;;;1.20;;
1625;SDS011;806;48.770;9.156;2023-06-22T07:56:22;2.70;;;1.27;;
1625;SDS011;806;48.770;9.156;2023-06-22T07:58:51;2.10;;;1.10;;
1625;SDS011;806;48.770;9.156;2023-06-22T08:01:18;1.58;;;1.20;;
1625;SDS011;806;48.770;9.156;2023-06-22T08:03:46;2.45;;;1.20;;
1625;SDS011;806;48.770;9.156;2023-06-22T08:06:14;3.07;;;1.10;;
1625;SDS011;806;48.770;9.156;2023-06-22T08:08:41;2.33;;;1.30;;
1625;SDS011;806;48.770;9.156;2023-06-22T08:11:08;1.30;;;1.00;;
1625;SDS011;806;48.770;9.156;2023-06-22T08:13:35;2.20;;;1.40;;
1625;SDS011;806;48.770;9.156;2023-06-22T08:16:04;3.03;;;1.00;;
1625;SDS011;806;48.770;9.156;2023-06-22T08:18:32;2.78;;;1.08;;
1625;SDS011;806;48.770;9.156;2023-06-22T08:20:59;1.90;;;1.10;;
1625;SDS011;806;48.770;9.156;2023-06-22T08:23:26;3.83;;;1.25;;
1625;SDS011;806;48.770;9.156;2023-06-22T08:25:53;1.80;;;1.00;;
1625;SDS011;806;48.770;9.156;2023-06-22T08:28:20;1.70;;;1.20;;
1625;SDS011;806;48.770;9.156;2023-06-22T08:30:47;1.20;;;1.00;;
1625;SDS011;806;48.770;9.156;2023-06-22T08:33:16;3.47;;;1.10;;
1625;SDS011;806;48.770;9.156;2023-06-22T08:35:43;2.00;;;1.00;;
1625;SDS011;806;48.770;9.156;2023-06-22T08:38:10;2.25;;;1.20;;
1625;SDS011;806;48.770;9.156;2023-06-22T08:40:40;1.20;;;0.90;;
1625;SDS011;806;48.770;9.156;2023-06-22T08:43:07;1.83;;;1.00;;
1625;SDS011;806;48.770;9.156;2023-06-22T08:45:34;2.08;;;1.25;;
1625;SDS011;806;48.770;9.156;2023-06-22T08:48:01;2.20;;;0.90;;
1625;SDS011;806;48.770;9.156;2023-06-22T08:50:30;2.70;;;1.10;;
1625;SDS011;806;48.770;9.156;2023-06-22T08:52:57;3.27;;;1.00;;
1625;SDS011;806;48.770;9.156;2023-06-22T08:55:24;1.90;;;1.02;;
1625;SDS011;806;48.770;9.156;2023-06-22T08:57:51;2.65;;;0.90;;
1625;SDS011;806;48.770;9.156;2023-06-22T09:00:18;2.40;;;1.10;;
1625;SDS011;806;48.770;9.156;2023-06-22T09:02:46;4.15;;;1.50;;
1625;SDS011;806;48.770;9.156;2023-06-22T09:05:14;1.85;;;1.00;;
1625;SDS011;806;48.770;9.156;2023-06-22T09:07:42;3.10;;;1.25;;
1625;SDS011;806;48.770;9.156;2023-06-22T09:10:10;2.63;;;1.20;;
1625;SDS011;806;48.770;9.156;2023-06-22T09:12:37;1.80;;;1.10;;
1625;SDS011;806;48.770;9.156;2023-06-22T09:15:05;2.70;;;1.10;;
1625;SDS011;806;48.770;9.156;2023-06-22T09:17:33;2.47;;;1.40;;
1625;SDS011;806;48.770;9.156;2023-06-22T09:20:02;2.60;;;1.30;;
1625;SDS011;806;48.770;9.156;2023-06-22T09:22:31;1.60;;;1.02;;
1625;SDS011;806;48.770;9.156;2023-06-22T09:25:00;1.70;;;1.10;;
1625;SDS011;806;48.770;9.156;2023-06-22T09:27:28;4.70;;;1.10;;
1625;SDS011;806;48.770;9.156;2023-06-22T09:29:55;2.50;;;1.10;;
1625;SDS011;806;48.770;9.156;2023-06-22T09:32:23;2.70;;;1.30;;
1625;SDS011;806;48.770;9.156;2023-06-22T09:34:50;2.90;;;1.00;;
1625;SDS011;806;48.770;9.156;2023-06-22T09:37:18;2.13;;;1.00;;
1625;SDS011;806;48.770;9.156;2023-06-22T09:39:45;1.70;;;1.00;;
1625;SDS011;806;48.770;9.156;2023-06-22T09:42:13;2.37;;;1.00;;
1625;SDS011;806;48.770;9.156;2023-06-22T09:44:40;2.07;;;1.10;;
1625;SDS011;806;48.770;9.156;2023-06-22T09:47:08;2.10;;;1.20;;
1625;SDS011;806;48.770;9.156;2023-06-22T09:49:35;1.77;;;1.10;;
1625;SDS011;806;48.770;9.156;2023-06-22T09:52:07;1.80;;;1.10;;
1625;SDS011;806;48.770;9.156;2023-06-22T09:54:34;2.80;;;1.17;;
1625;SDS011;806;48.770;9.156;2023-06-22T09:57:01;1.88;;;1.20;;
1625;SDS011;806;48.770;9.156;2023-06-22T09:59:29;2.80;;;1.30;;
1625;SDS011;806;48.770;9.156;2023-06-22T10:01:56;3.10;;;1.20;;
1625;SDS011;806;48.770;9.156;2023-06-22T10:04:23;4.18;;;1.10;;
1625;SDS011;806;48.770;9.156;2023-06-22T10:06:50;1.70;;;1.00;;
1625;SDS011;806;48.770;9.156;2023-06-22T10:09:17;3.03;;;1.30;;
1625;SDS011;806;48.770;9.156;2023-06-22T10:11:45;2.45;;;1.00;;
1625;SDS011;806;48.770;9.156;2023-06-22T10:14:12;3.60;;;1.30;;
1625;SDS011;806;48.770;9.156;2023-06-22T10:16:41;1.92;;;1.15;;
1625;SDS011;806;48.770;9.156;2023-06-22T10:19:08;2.42;;;1.30;;
1625;SDS011;806;48.770;9.156;2023-06-22T10:21:35;3.22;;;1.20;;
1625;SDS011;806;48.770;9.156;2023-06-22T10:24:02;4.35;;;2.47;;
1625;SDS011;806;48.770;9.156;2023-06-22T10:26:32;1.80;;;1.20;;
1625;SDS011;806;48.770;9.156;2023-06-22T10:28:59;2.75;;;1.20;;
1625;SDS011;806;48.770;9.156;2023-06-22T10:31:26;4.20;;;1.20;;
1625;SDS011;806;48.770;9.156;2023-06-22T10:33:54;2.43;;;1.20;;
1625;SDS011;806;48.770;9.156;2023-06-22T10:36:22;2.00;;;1.30;;
1625;SDS011;806;48.770;9.156;2023-06-22T10:38:49;2.73;;;1.10;;
1625;SDS011;806;48.770;9.156;2023-06-22T10:41:17;2.90;;;1.10;;
1625;SDS011;806;48.770;9.156;2023-06-22T10:43:44;3.90;;;1.30;;
1625;SDS011;806;48.770;9.156;2023-06-22T10:46:12;2.83;;;1.30;;
1625;SDS011;806;48.770;9.156;2023-06-22T10:48:39;2.42;;;1.20;;
1625;SDS011;806;48.770;9.156;2023-06-22T10:51:07;1.30;;;0.93;;
1625;SDS011;806;48.770;9.156;2023-06-22T10:53:34;3.17;;;1.10;;
1625;SDS011;806;48.770;9.156;2023-06-22T10:56:01;1.95;;;1.20;;
1625;SDS011;806;48.770;9.156;2023-06-22T10:58:28;4.10;;;1.20;;
1625;SDS011;806;48.770;9.156;2023-06-22T11:00:55;2.00;;;1.70;;
1625;SDS011;806;48.770;9.156;2023-06-22T11:03:22;1.90;;;1.10;;
1625;SDS011;806;48.770;9.156;2023-06-22T11:05:49;3.85;;;1.20;;
1625;SDS011;806;48.770;9.156;2023-06-22T11:08:18;3.40;;;1.20;;
1625;SDS011;806;48.770;9.156;2023-06-22T11:10:45;1.70;;;1.10;;
1625;SDS011;806;48.770;9.156;2023-06-22T11:13:12;2.60;;;1.10;;
1625;SDS011;806;48.770;9.156;2023-06-22T11:15:39;2.00;;;1.10;;
1625;SDS011;806;48.770;9.156;2023-06-22T11:18:06;3.10;;;1.20;;
1625;SDS011;806;48.770;9.156;2023-06-22T11:20:33;2.80;;;1.20;;
1625;SDS011;806;48.770;9.156;2023-06-22T11:23:03;3.67;;;1.20;;
1625;SDS011;806;48.770;9.156;2023-06-22T11:25:32;2.03;;;1.20;;
1625;SDS011;806;48.770;9.156;2023-06-22T11:28:01;5.07;;;1.20;;
1625;SDS011;806;48.770;9.156;2023-06-22T11:30:28;3.10;;;1.20;;
1625;SDS011;806;48.770;9.156;2023-06-22T11:32:56;4.43;;;1.40;;
1625;SDS011;806;48.770;9.156;2023-06-22T11:35:24;3.63;;;1.20;;
1625;SDS011;806;48.770;9.156;2023-06-22T11:37:50;3.55;;;1.30;;
1625;SDS011;806;48.770;9.156;2023-06-22T11:40:17;2.92;;;1.20;;
1625;SDS011;806;48.770;9.156;2023-06-22T11:42:46;1.40;;;1.10;;
1625;SDS011;806;48.770;9.156;2023-06-22T11:45:13;2.72;;;1.30;;
1625;SDS011;806;48.770;9.156;2023-06-22T11:47:41;1.60;;;1.10;;
1625;SDS011;806;48.770;9.156;2023-06-22T11:50:08;1.42;;;1.08;;
1625;SDS011;806;48.770;9.156;2023-06-22T11:52:36;2.30;;;1.10;;
1625;SDS011;806;48.770;9.156;2023-06-22T11:55:03;3.30;;;1.10;;
1625;SDS011;806;48.770;9.156;2023-06-22T11:57:32;2.40;;;1.10;;
1625;SDS011;806;48.770;9.156;2023-06-22T12:00:02;2.70;;;1.20;;
1625;SDS011;806;48.770;9.156;2023-06-22T12:02:38;3.00;;;1.13;;
1625;SDS011;806;48.770;9.156;2023-06-22T12:05:05;4.87;;;1.10;;
1625;SDS011;806;48.770;9.156;2023-06-22T12:07:33;3.30;;;1.10;;
1625;SDS011;806;48.770;9.156;2023-06-22T12:10:00;3.10;;;1.30;;
1625;SDS011;806;48.770;9.156;2023-06-22T12:12:27;3.33;;;1.30;;
1625;SDS011;806;48.770;9.156;2023-06-22T12:14:55;2.72;;;1.20;;
1625;SDS011;806;48.770;9.156;2023-06-22T12:17:23;1.80;;;1.27;;
1625;SDS011;806;48.770;9.156;2023-06-22T12:19:50;1.70;;;1.20;;
1625;SDS011;806;48.770;9.156;2023-06-22T12:22:17;3.10;;;1.20;;
1625;SDS011;806;48.770;9.156;2023-06-22T12:24:44;2.00;;;1.30;;
1625;SDS011;806;48.770;9.156;2023-06-22T12:27:12;2.20;;;1.30;;
1625;SDS011;806;48.770;9.156;2023-06-22T12:29:41;3.65;;;1.30;;
1625;SDS011;806;48.770;9.156;2023-06-22T12:32:08;3.22;;;2.00;;
1625;SDS011;806;48.770;9.156;2023-06-22T12:34:39;5.10;;;1.48;;
1625;SDS011;806;48.770;9.156;2023-06-22T12:37:07;3.10;;;1.20;;
1625;SDS011;806;48.770;9.156;2023-06-22T12:39:35;3.40;;;1.70;;
1625;SDS011;806;48.770;9.156;2023-06-22T12:42:02;2.90;;;1.40;;
1625;SDS011;806;48.770;9.156;2023-06-22T12:44:29;3.40;;;1.50;;
1625;SDS011;806;48.770;9.156;2023-06-22T12:46:56;4.00;;;1.58;;
1625;SDS011;806;48.770;9.156;2023-06-22T12:49:23;3.95;;;1.30;;
1625;SDS011;806;48.770;9.156;2023-06-22T12:51:51;2.10;;;1.30;;
1625;SDS011;806;48.770;9.156;2023-06-22T12:54:18;2.30;;;1.20;;
1625;SDS011;806;48.770;9.156;2023-06-22T12:56:45;3.03;;;1.20;;
1625;SDS011;806;48.770;9.156;2023-06-22T12:59:12;2.65;;;1.40;;
1625;SDS011;806;48.770;9.156;2023-06-22T13:01:39;3.15;;;1.20;;
1625;SDS011;806;48.770;9.156;2023-06-22T13:04:09;3.20;;;1.30;;
1625;SDS011;806;48.770;9.156;2023-06-22T13:06:36;2.10;;;1.23;;
1625;SDS011;806;48.770;9.156;2023-06-22T13:09:04;2.53;;;1.10;;
1625;SDS011;806;48.770;9.156;2023-06-22T13:11:31;2.67;;;1.42;;
1625;SDS011;806;48.770;9.156;2023-06-22T13:13:58;3.72;;;1.20;;
1625;SDS011;806;48.770;9.156;2023-06-22T13:16:25;4.15;;;1.40;;
1625;SDS011;806;48.770;9.156;2023-06-22T13:18:52;4.00;;;1.23;;
1625;SDS011;806;48.770;9.156;2023-06-22T13:21:19;3.00;;;1.30;;
1625;SDS011;806;48.770;9.156;2023-06-22T13:23:46;4.40;;;1.60;;
1625;SDS011;806;48.770;9.156;2023-06-22T13:26:15;4.30;;;1.20;;
1625;SDS011;806;48.770;9.156;2023-06-22T13:28:42;3.00;;;1.40;;
1625;SDS011;806;48.770;9.156;2023-06-22T13:31:09;3.20;;;1.50;;
1625;SDS011;806;48.770;9.156;2023-06-22T13:33:37;3.40;;;1.40;;
1625;SDS011;806;48.770;9.156;2023-06-22T13:36:05;2.45;;;1.20;;
1625;SDS011;806;48.770;9.156;2023-06-22T13:38:33;3.83;;;1.20;;
1625;SDS011;806;48.770;9.156;2023-06-22T13:41:03;3.42;;;1.20;;
1625;SDS011;806;48.770;9.156;2023-06-22T13:43:32;2.15;;;1.20;;
1625;SDS011;806;48.770;9.156;2023-06-22T13:45:59;2.40;;;1.10;;
1625;SDS011;806;48.770;9.156;2023-06-22T13:48:26;3.47;;;1.30;;
1625;SDS011;806;48.770;9.156;2023-06-22T13:50:53;2.70;;;1.10;;
1625;SDS011;806;48.770;9.156;2023-06-22T13:53:20;2.40;;;1.20;;
1625;SDS011;806;48.770;9.156;2023-06-22T13:55:47;2.70;;;1.48;;
1625;SDS011;806;48.770;9.156;2023-06-22T13:58:15;2.90;;;1.40;;
1625;SDS011;806;48.770;9.156;2023-06-22T14:00:46;4.20;;;1.20;;
1625;SDS011;806;48.770;9.156;2023-06-22T14:03:14;2.50;;;1.70;;
1625;SDS011;806;48.770;9.156;2023-06-22T14:05:42;3.08;;;1.45;;
1625;SDS011;806;48.770;9.156;2023-06-22T14:08:09;3.93;;;1.23;;
1625;SDS011;806;48.770;9.156;2023-06-22T14:10:35;3.97;;;1.30;;
1625;SDS011;806;48.770;9.156;2023-06-22T14:13:02;2.20;;;1.37;;
1625;SDS011;806;48.770;9.156;2023-06-22T14:15:31;3.53;;;1.30;;
1625;SDS011;806;48.770;9.156;2023-06-22T14:17:59;3.20;;;1.30;;
1625;SDS011;806;48.770;9.156;2023-06-22T14:20:28;5.97;;;1.10;;
1625;SDS011;806;48.770;9.156;2023-06-22T14:22:56;4.50;;;1.35;;
1625;SDS011;806;48.770;9.156;2023-06-22T14:25:23;2.38;;;1.20;;
1625;SDS011;806;48.770;9.156;2023-06-22T14:27:50;3.70;;;1.42;;
1625;SDS011;806;48.770;9.156;2023-06-22T14:30:17;2.95;;;1.05;;
1625;SDS011;806;48.770;9.156;2023-06-22T14:32:44;4.03;;;1.08;;
1625;SDS011;806;48.770;9.156;2023-06-22T14:35:12;2.55;;;1.10;;
1625;SDS011;806;48.770;9.156;2023-06-22T14:37:39;1.80;;;1.10;;
1625;SDS011;806;48.770;9.156;2023-06-22T14:40:06;3.85;;;1.00;;
1625;SDS011;806;48.770;9.156;2023-06-22T14:42:34;1.80;;;0.90;;
1625;SDS011;806;48.770;9.156;2023-06-22T14:45:01;1.70;;;0.90;;
1625;SDS011;806;48.770;9.156;2023-06-22T14:47:28;3.47;;;1.60;;
1625;SDS011;806;48.770;9.156;2023-06-22T14:49:55;2.93;;;1.10;;
1625;SDS011;806;48.770;9.156;2023-06-22T14:52:23;2.80;;;0.90;;
1625;SDS011;806;48.770;9.156;2023-06-22T14:54:50;2.03;;;0.80;;
1625;SDS011;806;48.770;9.156;2023-06-22T14:57:17;1.88;;;0.88;;
1625;SDS011;806;48.770;9.156;2023-06-22T14:59:45;1.80;;;0.60;;
1625;SDS011;806;48.770;9.156;2023-06-22T15:02:12;2.90;;;0.70;;
1625;SDS011;806;48.770;9.156;2023-06-22T15:04:39;2.20;;;0.60;;
1625;SDS011;806;48.770;9.156;2023-06-22T15:07:06;1.75;;;0.60;;
1625;SDS011;806;48.770;9.156;2023-06-22T15:09:34;2.00;;;0.70;;
1625;SDS011;806;48.770;9.156;2023-06-22T15:12:04;2.75;;;0.60;;
1625;SDS011;806;48.770;9.156;2023-06-22T15:14:36;2.75;;;0.75;;
1625;SDS011;806;48.770;9.156;2023-06-22T15:17:04;1.20;;;0.70;;
1625;SDS011;806;48.770;9.156;2023-06-22T15:19:34;1.00;;;0.50;;
1625;SDS011;806;48.770;9.156;2023-06-22T15:22:02;1.70;;;0.60;;
1625;SDS011;806;48.770;9.156;2023-06-22T15:24:29;2.47;;;0.60;;
1625;SDS011;806;48.770;9.156;2023-06-22T15:26:58;2.00;;;0.70;;
1625;SDS011;806;48.770;9.156;2023-06-22T15:29:26;2.10;;;1.00;;
1625;SDS011;806;48.770;9.156;2023-06-22T15:31:55;3.05;;;0.60;;
1625;SDS011;806;48.770;9.156;2023-06-22T15:34:22;1.38;;;0.60;;
1625;SDS011;806;48.770;9.156;2023-06-22T15:36:49;2.10;;;0.60;;